sensor_id;sensor_type;location;lat;lon;timestamp;temperature;humidity
23713;DHT22;12035;49.978;8.298;2024-01-15T00:04:56;1.30;75.90
23713;DHT22;12035;49.978;8.298;2024-01-15T00:09:54;1.30;75.80
23713;DHT22;12035;49.978;8.298;2024-01-15T00:14:51;1.30;75.90
23713;DHT22;12035;49.978;8.298;2024-01-15T00:19:48;1.30;76.00
23713;DHT22;12035;49.978;8.298;2024-01-15T00:24:45;1.30;76.00
23713;DHT22;12035;49.978;8.298;2024-01-15T00:29:43;1.30;76.00
23713;DHT22;12035;49.978;8.298;2024-01-15T00:34:40;1.30;75.90
23713;DHT22;12035;49.978;8.298;2024-01-15T00:39:37;1.30;75.80
23713;DHT22;12035;49.978;8.298;2024-01-15T00:44:34;1.30;75.80
23713;DHT22;12035;49.978;8.298;2024-01-15T00:49:33;1.30;75.70
23713;DHT22;12035;49.978;8.298;2024-01-15T00:54:30;1.30;75.70
23713;DHT22;12035;49.978;8.298;2024-01-15T00:59:27;1.30;75.60
23713;DHT22;12035;49.978;8.298;2024-01-15T01:04:24;1.30;75.70
23713;DHT22;12035;49.978;8.298;2024-01-15T01:09:22;1.30;75.70
23713;DHT22;12035;49.978;8.298;2024-01-15T01:14:20;1.30;75.70
23713;DHT22;12035;49.978;8.298;2024-01-15T01:19:17;1.30;75.60
23713;DHT22;12035;49.978;8.298;2024-01-15T01:24:14;1.30;75.60
23713;DHT22;12035;49.978;8.298;2024-01-15T01:29:12;1.30;75.50
23713;DHT22;12035;49.978;8.298;2024-01-15T01:34:09;1.30;75.60
23713;DHT22;12035;49.978;8.298;2024-01-15T01:39:06;1.30;75.60
23713;DHT22;12035;49.978;8.298;2024-01-15T01:44:03;1.40;75.70
23713;DHT22;12035;49.978;8.298;2024-01-15T01:49:02;1.40;75.60
23713;DHT22;12035;49.978;8.298;2024-01-15T01:54:01;1.40;75.60
23713;DHT22;12035;49.978;8.298;2024-01-15T01:58:58;1.40;75.50
23713;DHT22;12035;49.978;8.298;2024-01-15T02:03:55;1.40;75.60
23713;DHT22;12035;49.978;8.298;2024-01-15T02:08:54;1.40;75.60
23713;DHT22;12035;49.978;8.298;2024-01-15T02:13:51;1.40;75.60
23713;DHT22;12035;49.978;8.298;2024-01-15T02:18:48;1.40;75.60
23713;DHT22;12035;49.978;8.298;2024-01-15T02:23:48;1.50;75.70
23713;DHT22;12035;49.978;8.298;2024-01-15T02:28:45;1.60;75.70
23713;DHT22;12035;49.978;8.298;2024-01-15T02:33:42;1.60;75.70
23713;DHT22;12035;49.978;8.298;2024-01-15T02:38:41;1.70;75.70
23713;DHT22;12035;49.978;8.298;2024-01-15T02:43:40;1.70;75.60
23713;DHT22;12035;49.978;8.298;2024-01-15T02:48:37;1.70;75.50
23713;DHT22;12035;49.978;8.298;2024-01-15T02:53:35;1.70;75.40
23713;DHT22;12035;49.978;8.298;2024-01-15T02:58:32;1.70;75.40
23713;DHT22;12035;49.978;8.298;2024-01-15T03:03:31;1.70;75.30
23713;DHT22;12035;49.978;8.298;2024-01-15T03:08:28;1.70;75.40
23713;DHT22;12035;49.978;8.298;2024-01-15T03:13:25;1.70;75.40
23713;DHT22;12035;49.978;8.298;2024-01-15T03:18:22;1.80;75.60
23713;DHT22;12035;49.978;8.298;2024-01-15T03:23:21;1.80;75.60
23713;DHT22;12035;49.978;8.298;2024-01-15T03:28:18;1.80;75.70
23713;DHT22;12035;49.978;8.298;2024-01-15T03:33:15;1.80;75.80
23713;DHT22;12035;49.978;8.298;2024-01-15T03:38:12;1.80;75.70
23713;DHT22;12035;49.978;8.298;2024-01-15T03:43:10;1.80;75.70
23713;DHT22;12035;49.978;8.298;2024-01-15T03:48:07;1.70;75.70
23713;DHT22;12035;49.978;8.298;2024-01-15T03:53:04;1.70;75.70
23713;DHT22;12035;49.978;8.298;2024-01-15T03:58:02;1.70;75.80
23713;DHT22;12035;49.978;8.298;2024-01-15T04:03:00;1.70;75.90
23713;DHT22;12035;49.978;8.298;2024-01-15T04:07:57;1.70;76.70
23713;DHT22;12035;49.978;8.298;2024-01-15T04:12:54;1.70;75.90
23713;DHT22;12035;49.978;8.298;2024-01-15T04:17:52;1.70;76.00
23713;DHT22;12035;49.978;8.298;2024-01-15T04:22:50;1.80;76.00
23713;DHT22;12035;49.978;8.298;2024-01-15T04:27:47;1.70;76.10
23713;DHT22;12035;49.978;8.298;2024-01-15T04:32:44;1.80;76.20
23713;DHT22;12035;49.978;8.298;2024-01-15T04:37:41;1.90;76.20
23713;DHT22;12035;49.978;8.298;2024-01-15T04:42:39;1.90;76.00
23713;DHT22;12035;49.978;8.298;2024-01-15T04:47:37;2.00;76.00
23713;DHT22;12035;49.978;8.298;2024-01-15T04:52:34;2.10;76.00
23713;DHT22;12035;49.978;8.298;2024-01-15T04:57:30;2.20;76.00
23713;DHT22;12035;49.978;8.298;2024-01-15T05:02:29;2.20;75.80
23713;DHT22;12035;49.978;8.298;2024-01-15T05:07:26;2.20;75.60
23713;DHT22;12035;49.978;8.298;2024-01-15T05:12:23;2.20;75.50
23713;DHT22;12035;49.978;8.298;2024-01-15T05:17:20;2.20;75.50
23713;DHT22;12035;49.978;8.298;2024-01-15T05:22:18;2.20;75.60
23713;DHT22;12035;49.978;8.298;2024-01-15T05:27:16;2.20;75.80
23713;DHT22;12035;49.978;8.298;2024-01-15T05:32:13;2.20;76.20
23713;DHT22;12035;49.978;8.298;2024-01-15T05:37:10;2.20;76.60
23713;DHT22;12035;49.978;8.298;2024-01-15T05:42:09;2.10;76.90
23713;DHT22;12035;49.978;8.298;2024-01-15T05:47:06;2.10;77.00
23713;DHT22;12035;49.978;8.298;2024-01-15T05:52:04;2.10;77.10
23713;DHT22;12035;49.978;8.298;2024-01-15T05:57:01;2.10;77.00
23713;DHT22;12035;49.978;8.298;2024-01-15T06:02:00;2.20;77.00
23713;DHT22;12035;49.978;8.298;2024-01-15T06:06:57;2.20;76.80
23713;DHT22;12035;49.978;8.298;2024-01-15T06:11:54;2.20;76.70
23713;DHT22;12035;49.978;8.298;2024-01-15T06:16:52;2.20;76.70
23713;DHT22;12035;49.978;8.298;2024-01-15T06:21:50;2.20;76.60
23713;DHT22;12035;49.978;8.298;2024-01-15T06:26:48;2.20;76.50
23713;DHT22;12035;49.978;8.298;2024-01-15T06:31:46;2.30;76.80
23713;DHT22;12035;49.978;8.298;2024-01-15T06:36:44;2.30;77.10
23713;DHT22;12035;49.978;8.298;2024-01-15T06:41:42;2.30;77.10
23713;DHT22;12035;49.978;8.298;2024-01-15T06:46:42;2.30;77.30
23713;DHT22;12035;49.978;8.298;2024-01-15T06:51:39;2.30;77.40
23713;DHT22;12035;49.978;8.298;2024-01-15T06:56:37;2.30;77.40
23713;DHT22;12035;49.978;8.298;2024-01-15T07:01:35;2.30;77.50
23713;DHT22;12035;49.978;8.298;2024-01-15T07:06:32;2.30;78.40
23713;DHT22;12035;49.978;8.298;2024-01-15T07:11:31;2.30;77.60
23713;DHT22;12035;49.978;8.298;2024-01-15T07:16:28;2.30;77.60
23713;DHT22;12035;49.978;8.298;2024-01-15T07:21:29;2.30;77.60
23713;DHT22;12035;49.978;8.298;2024-01-15T07:26:26;2.40;77.60
23713;DHT22;12035;49.978;8.298;2024-01-15T07:31:23;2.40;77.50
23713;DHT22;12035;49.978;8.298;2024-01-15T07:36:20;2.50;77.40
23713;DHT22;12035;49.978;8.298;2024-01-15T07:41:19;2.50;77.40
23713;DHT22;12035;49.978;8.298;2024-01-15T07:46:16;2.50;77.30
23713;DHT22;12035;49.978;8.298;2024-01-15T07:51:12;2.50;77.30
23713;DHT22;12035;49.978;8.298;2024-01-15T07:56:10;2.50;77.30
23713;DHT22;12035;49.978;8.298;2024-01-15T08:01:08;2.50;77.30
23713;DHT22;12035;49.978;8.298;2024-01-15T08:06:06;2.60;77.30
23713;DHT22;12035;49.978;8.298;2024-01-15T08:11:05;2.60;77.30
23713;DHT22;12035;49.978;8.298;2024-01-15T08:16:02;2.60;77.40
23713;DHT22;12035;49.978;8.298;2024-01-15T08:21:01;2.60;77.30
23713;DHT22;12035;49.978;8.298;2024-01-15T08:25:58;2.60;77.30
23713;DHT22;12035;49.978;8.298;2024-01-15T08:30:55;2.70;77.30
23713;DHT22;12035;49.978;8.298;2024-01-15T08:35:52;2.70;77.10
23713;DHT22;12035;49.978;8.298;2024-01-15T08:40:50;2.70;77.10
23713;DHT22;12035;49.978;8.298;2024-01-15T08:45:49;2.70;77.10
23713;DHT22;12035;49.978;8.298;2024-01-15T08:50:46;2.70;77.10
23713;DHT22;12035;49.978;8.298;2024-01-15T08:55:43;2.80;77.10
23713;DHT22;12035;49.978;8.298;2024-01-15T09:00:42;2.80;77.10
23713;DHT22;12035;49.978;8.298;2024-01-15T09:05:39;2.90;77.20
23713;DHT22;12035;49.978;8.298;2024-01-15T09:10:36;3.00;77.20
23713;DHT22;12035;49.978;8.298;2024-01-15T09:15:34;3.00;77.20
23713;DHT22;12035;49.978;8.298;2024-01-15T09:20:32;3.10;77.10
23713;DHT22;12035;49.978;8.298;2024-01-15T09:25:29;3.20;76.90
23713;DHT22;12035;49.978;8.298;2024-01-15T09:30:26;3.30;76.90
23713;DHT22;12035;49.978;8.298;2024-01-15T09:35:23;3.40;76.90
23713;DHT22;12035;49.978;8.298;2024-01-15T09:40:21;3.40;76.60
23713;DHT22;12035;49.978;8.298;2024-01-15T09:45:20;3.50;76.30
23713;DHT22;12035;49.978;8.298;2024-01-15T09:50:17;3.50;76.00
23713;DHT22;12035;49.978;8.298;2024-01-15T09:55:15;3.50;76.00
23713;DHT22;12035;49.978;8.298;2024-01-15T10:00:17;3.50;75.90
23713;DHT22;12035;49.978;8.298;2024-01-15T10:05:15;3.50;76.00
23713;DHT22;12035;49.978;8.298;2024-01-15T10:10:12;3.50;76.10
23713;DHT22;12035;49.978;8.298;2024-01-15T10:15:09;3.50;76.20
23713;DHT22;12035;49.978;8.298;2024-01-15T10:20:11;3.50;76.40
23713;DHT22;12035;49.978;8.298;2024-01-15T10:25:10;3.50;76.40
23713;DHT22;12035;49.978;8.298;2024-01-15T10:30:08;3.60;76.40
23713;DHT22;12035;49.978;8.298;2024-01-15T10:35:08;3.60;76.20
23713;DHT22;12035;49.978;8.298;2024-01-15T10:40:06;3.70;76.40
23713;DHT22;12035;49.978;8.298;2024-01-15T10:45:05;3.80;76.40
23713;DHT22;12035;49.978;8.298;2024-01-15T10:50:06;3.80;76.30
23713;DHT22;12035;49.978;8.298;2024-01-15T10:55:06;3.90;76.30
23713;DHT22;12035;49.978;8.298;2024-01-15T11:00:06;3.90;76.10
23713;DHT22;12035;49.978;8.298;2024-01-15T11:05:04;3.90;76.10
23713;DHT22;12035;49.978;8.298;2024-01-15T11:10:05;4.00;76.50
23713;DHT22;12035;49.978;8.298;2024-01-15T11:15:06;4.10;76.90
23713;DHT22;12035;49.978;8.298;2024-01-15T11:20:06;4.20;75.90
23713;DHT22;12035;49.978;8.298;2024-01-15T11:25:13;4.20;75.70
23713;DHT22;12035;49.978;8.298;2024-01-15T11:30:11;4.20;75.60
23713;DHT22;12035;49.978;8.298;2024-01-15T11:35:09;4.30;75.60
23713;DHT22;12035;49.978;8.298;2024-01-15T11:40:09;4.30;75.60
23713;DHT22;12035;49.978;8.298;2024-01-15T11:45:07;4.40;75.50
23713;DHT22;12035;49.978;8.298;2024-01-15T11:50:06;4.40;75.60
23713;DHT22;12035;49.978;8.298;2024-01-15T11:55:19;4.50;75.50
23713;DHT22;12035;49.978;8.298;2024-01-15T12:00:19;4.60;75.10
23713;DHT22;12035;49.978;8.298;2024-01-15T12:05:18;4.60;75.10
23713;DHT22;12035;49.978;8.298;2024-01-15T12:10:17;4.70;74.80
23713;DHT22;12035;49.978;8.298;2024-01-15T12:15:15;4.80;74.60
23713;DHT22;12035;49.978;8.298;2024-01-15T12:20:13;4.90;74.30
23713;DHT22;12035;49.978;8.298;2024-01-15T12:25:11;4.90;74.10
23713;DHT22;12035;49.978;8.298;2024-01-15T12:30:13;4.90;73.80
23713;DHT22;12035;49.978;8.298;2024-01-15T12:35:11;4.90;73.50
23713;DHT22;12035;49.978;8.298;2024-01-15T12:40:09;4.90;73.40
23713;DHT22;12035;49.978;8.298;2024-01-15T12:45:08;5.00;73.20
23713;DHT22;12035;49.978;8.298;2024-01-15T12:50:10;5.00;73.10
23713;DHT22;12035;49.978;8.298;2024-01-15T12:55:09;5.00;73.50
23713;DHT22;12035;49.978;8.298;2024-01-15T13:00:07;5.00;72.80
23713;DHT22;12035;49.978;8.298;2024-01-15T13:05:09;5.00;72.70
23713;DHT22;12035;49.978;8.298;2024-01-15T13:10:07;5.00;72.60
23713;DHT22;12035;49.978;8.298;2024-01-15T13:15:05;5.00;72.60
23713;DHT22;12035;49.978;8.298;2024-01-15T13:20:09;5.10;72.70
23713;DHT22;12035;49.978;8.298;2024-01-15T13:25:07;5.10;72.40
23713;DHT22;12035;49.978;8.298;2024-01-15T13:30:05;5.10;72.10
23713;DHT22;12035;49.978;8.298;2024-01-15T13:35:04;5.20;72.00
23713;DHT22;12035;49.978;8.298;2024-01-15T13:40:07;5.20;71.80
23713;DHT22;12035;49.978;8.298;2024-01-15T13:45:05;5.30;71.90
23713;DHT22;12035;49.978;8.298;2024-01-15T13:50:03;5.30;71.50
23713;DHT22;12035;49.978;8.298;2024-01-15T13:55:01;5.30;71.40
23713;DHT22;12035;49.978;8.298;2024-01-15T14:00:00;5.30;71.30
23713;DHT22;12035;49.978;8.298;2024-01-15T14:04:57;5.30;71.00
23713;DHT22;12035;49.978;8.298;2024-01-15T14:09:54;5.30;70.90
23713;DHT22;12035;49.978;8.298;2024-01-15T14:14:51;5.30;70.90
23713;DHT22;12035;49.978;8.298;2024-01-15T14:19:50;5.30;70.90
23713;DHT22;12035;49.978;8.298;2024-01-15T14:24:47;5.30;70.80
23713;DHT22;12035;49.978;8.298;2024-01-15T14:29:44;5.30;70.90
23713;DHT22;12035;49.978;8.298;2024-01-15T14:34:41;5.30;70.80
23713;DHT22;12035;49.978;8.298;2024-01-15T14:39:40;5.40;70.50
23713;DHT22;12035;49.978;8.298;2024-01-15T14:44:38;5.40;70.30
23713;DHT22;12035;49.978;8.298;2024-01-15T14:49:36;5.40;70.10
23713;DHT22;12035;49.978;8.298;2024-01-15T14:54:33;5.40;69.60
23713;DHT22;12035;49.978;8.298;2024-01-15T14:59:31;5.40;69.50
23713;DHT22;12035;49.978;8.298;2024-01-15T15:04:28;5.40;69.30
23713;DHT22;12035;49.978;8.298;2024-01-15T15:09:25;5.40;69.30
23713;DHT22;12035;49.978;8.298;2024-01-15T15:14:22;5.30;69.10
23713;DHT22;12035;49.978;8.298;2024-01-15T15:19:21;5.30;69.10
23713;DHT22;12035;49.978;8.298;2024-01-15T15:24:18;5.30;69.00
23713;DHT22;12035;49.978;8.298;2024-01-15T15:29:15;5.30;68.60
23713;DHT22;12035;49.978;8.298;2024-01-15T15:34:12;5.20;68.50
23713;DHT22;12035;49.978;8.298;2024-01-15T15:39:10;5.20;68.30
23713;DHT22;12035;49.978;8.298;2024-01-15T15:44:13;5.10;68.30
23713;DHT22;12035;49.978;8.298;2024-01-15T15:49:12;5.10;68.20
23713;DHT22;12035;49.978;8.298;2024-01-15T15:54:10;5.00;68.30
23713;DHT22;12035;49.978;8.298;2024-01-15T15:59:07;5.00;68.20
23713;DHT22;12035;49.978;8.298;2024-01-15T16:04:04;4.90;68.10
23713;DHT22;12035;49.978;8.298;2024-01-15T16:09:01;4.90;68.10
23713;DHT22;12035;49.978;8.298;2024-01-15T16:14:00;4.80;68.90
23713;DHT22;12035;49.978;8.298;2024-01-15T16:18:58;4.80;68.10
23713;DHT22;12035;49.978;8.298;2024-01-15T16:23:55;4.80;67.80
23713;DHT22;12035;49.978;8.298;2024-01-15T16:28:52;4.70;67.70
23713;DHT22;12035;49.978;8.298;2024-01-15T16:33:50;4.70;67.40
23713;DHT22;12035;49.978;8.298;2024-01-15T16:38:47;4.70;67.40
23713;DHT22;12035;49.978;8.298;2024-01-15T16:43:46;4.70;68.40
23713;DHT22;12035;49.978;8.298;2024-01-15T16:48:43;4.70;67.90
23713;DHT22;12035;49.978;8.298;2024-01-15T16:53:42;4.70;67.70
23713;DHT22;12035;49.978;8.298;2024-01-15T16:58:39;4.80;67.80
23713;DHT22;12035;49.978;8.298;2024-01-15T17:03:36;4.80;67.90
23713;DHT22;12035;49.978;8.298;2024-01-15T17:08:33;4.80;67.90
23713;DHT22;12035;49.978;8.298;2024-01-15T17:13:31;4.70;67.90
23713;DHT22;12035;49.978;8.298;2024-01-15T17:18:29;4.80;68.10
23713;DHT22;12035;49.978;8.298;2024-01-15T17:23:27;4.80;68.40
23713;DHT22;12035;49.978;8.298;2024-01-15T17:28:24;4.80;68.70
23713;DHT22;12035;49.978;8.298;2024-01-15T17:33:22;4.80;68.80
23713;DHT22;12035;49.978;8.298;2024-01-15T17:38:19;4.80;68.70
23713;DHT22;12035;49.978;8.298;2024-01-15T17:43:17;4.90;68.70
23713;DHT22;12035;49.978;8.298;2024-01-15T17:48:14;4.90;68.80
23713;DHT22;12035;49.978;8.298;2024-01-15T17:53:13;4.90;69.30
23713;DHT22;12035;49.978;8.298;2024-01-15T17:58:10;4.90;70.00
23713;DHT22;12035;49.978;8.298;2024-01-15T18:03:07;4.80;70.60
23713;DHT22;12035;49.978;8.298;2024-01-15T18:08:04;4.80;70.80
23713;DHT22;12035;49.978;8.298;2024-01-15T18:13:03;4.70;70.80
23713;DHT22;12035;49.978;8.298;2024-01-15T18:18:00;4.70;70.90
23713;DHT22;12035;49.978;8.298;2024-01-15T18:22:58;4.70;71.10
23713;DHT22;12035;49.978;8.298;2024-01-15T18:27:54;4.70;71.30
23713;DHT22;12035;49.978;8.298;2024-01-15T18:32:53;4.70;71.40
23713;DHT22;12035;49.978;8.298;2024-01-15T18:37:50;4.70;71.40
23713;DHT22;12035;49.978;8.298;2024-01-15T18:42:47;4.70;71.30
23713;DHT22;12035;49.978;8.298;2024-01-15T18:47:45;4.80;71.30
23713;DHT22;12035;49.978;8.298;2024-01-15T18:52:43;4.80;71.00
23713;DHT22;12035;49.978;8.298;2024-01-15T18:57:41;4.80;70.50
23713;DHT22;12035;49.978;8.298;2024-01-15T19:02:38;4.80;70.40
23713;DHT22;12035;49.978;8.298;2024-01-15T19:07:35;4.90;70.20
23713;DHT22;12035;49.978;8.298;2024-01-15T19:12:35;4.80;70.00
23713;DHT22;12035;49.978;8.298;2024-01-15T19:17:32;4.80;69.80
23713;DHT22;12035;49.978;8.298;2024-01-15T19:22:29;4.80;69.60
23713;DHT22;12035;49.978;8.298;2024-01-15T19:27:26;4.80;69.50
23713;DHT22;12035;49.978;8.298;2024-01-15T19:32:25;4.80;69.40
23713;DHT22;12035;49.978;8.298;2024-01-15T19:37:22;4.80;69.20
23713;DHT22;12035;49.978;8.298;2024-01-15T19:42:20;4.70;69.00
23713;DHT22;12035;49.978;8.298;2024-01-15T19:47:17;4.70;68.90
23713;DHT22;12035;49.978;8.298;2024-01-15T19:52:16;4.70;68.90
23713;DHT22;12035;49.978;8.298;2024-01-15T19:57:13;4.60;68.90
23713;DHT22;12035;49.978;8.298;2024-01-15T20:02:10;4.60;69.00
23713;DHT22;12035;49.978;8.298;2024-01-15T20:07:07;4.60;69.10
23713;DHT22;12035;49.978;8.298;2024-01-15T20:12:06;4.50;68.90
23713;DHT22;12035;49.978;8.298;2024-01-15T20:17:03;4.50;69.00
23713;DHT22;12035;49.978;8.298;2024-01-15T20:22:00;4.50;69.00
23713;DHT22;12035;49.978;8.298;2024-01-15T20:26:57;4.50;69.00
23713;DHT22;12035;49.978;8.298;2024-01-15T20:31:56;4.40;69.00
23713;DHT22;12035;49.978;8.298;2024-01-15T20:36:53;4.40;69.00
23713;DHT22;12035;49.978;8.298;2024-01-15T20:41:50;4.40;69.00
23713;DHT22;12035;49.978;8.298;2024-01-15T20:46:47;4.40;68.90
23713;DHT22;12035;49.978;8.298;2024-01-15T20:51:46;4.30;68.90
23713;DHT22;12035;49.978;8.298;2024-01-15T20:56:43;4.20;68.90
23713;DHT22;12035;49.978;8.298;2024-01-15T21:01:40;4.20;69.00
23713;DHT22;12035;49.978;8.298;2024-01-15T21:06:37;4.10;69.90
23713;DHT22;12035;49.978;8.298;2024-01-15T21:11:35;4.10;69.20
23713;DHT22;12035;49.978;8.298;2024-01-15T21:16:32;4.00;69.50
23713;DHT22;12035;49.978;8.298;2024-01-15T21:21:29;3.90;69.60
23713;DHT22;12035;49.978;8.298;2024-01-15T21:26:27;3.80;69.80
23713;DHT22;12035;49.978;8.298;2024-01-15T21:31:25;3.70;70.10
23713;DHT22;12035;49.978;8.298;2024-01-15T21:36:22;3.70;70.30
23713;DHT22;12035;49.978;8.298;2024-01-15T21:41:19;3.60;70.50
23713;DHT22;12035;49.978;8.298;2024-01-15T21:46:16;3.50;70.70
23713;DHT22;12035;49.978;8.298;2024-01-15T21:51:14;3.50;70.80
23713;DHT22;12035;49.978;8.298;2024-01-15T21:56:11;3.50;71.20
23713;DHT22;12035;49.978;8.298;2024-01-15T22:01:08;3.60;71.40
23713;DHT22;12035;49.978;8.298;2024-01-15T22:06:06;3.60;71.40
23713;DHT22;12035;49.978;8.298;2024-01-15T22:11:05;3.60;71.50
23713;DHT22;12035;49.978;8.298;2024-01-15T22:16:02;3.60;71.50
23713;DHT22;12035;49.978;8.298;2024-01-15T22:21:00;3.70;71.60
23713;DHT22;12035;49.978;8.298;2024-01-15T22:25:57;3.70;71.50
23713;DHT22;12035;49.978;8.298;2024-01-15T22:30:55;3.70;71.60
23713;DHT22;12035;49.978;8.298;2024-01-15T22:35:52;3.70;71.30
23713;DHT22;12035;49.978;8.298;2024-01-15T22:40:49;3.70;71.30
23713;DHT22;12035;49.978;8.298;2024-01-15T22:45:46;3.70;71.30
23713;DHT22;12035;49.978;8.298;2024-01-15T22:50:44;3.70;71.30
23713;DHT22;12035;49.978;8.298;2024-01-15T22:55:41;3.60;71.30
23713;DHT22;12035;49.978;8.298;2024-01-15T23:00:38;3.60;71.30
23713;DHT22;12035;49.978;8.298;2024-01-15T23:05:39;3.60;71.30
23713;DHT22;12035;49.978;8.298;2024-01-15T23:10:37;3.50;71.30
23713;DHT22;12035;49.978;8.298;2024-01-15T23:15:34;3.50;71.30
23713;DHT22;12035;49.978;8.298;2024-01-15T23:20:31;3.40;71.30
23713;DHT22;12035;49.978;8.298;2024-01-15T23:25:28;3.40;71.50
23713;DHT22;12035;49.978;8.298;2024-01-15T23:30:27;3.30;71.60
23713;DHT22;12035;49.978;8.298;2024-01-15T23:35:24;3.20;71.70
23713;DHT22;12035;49.978;8.298;2024-01-15T23:40:21;3.20;71.80
23713;DHT22;12035;49.978;8.298;2024-01-15T23:45:18;3.10;71.90
23713;DHT22;12035;49.978;8.298;2024-01-15T23:50:17;3.00;72.00
23713;DHT22;12035;49.978;8.298;2024-01-15T23:55:14;3.00;72.30
